Tiempo atmosférico en la estación meteorológica de León Aeropuerto, León (916 m.)



Fecha
DESCASC
Temp. máxima en grados centígrados (hora)
DESCASC
Temp. mínima en grados centígrados (hora)
DESCASC
Temp. media en grados centígrados
DESCASC
Racha de viento máxima en m/sg (hora)
DESCASC
Velocidad máxima media en intervalos de 10 minutos(hora)
DESCASC
Precipitaciones diarias en mm
DESCASC
Precipitaciones de 00:00 a 06:00 en mm
DESCASC
Precipitaciones de 06:00 a 12:00 en mm
DESCASC
Precipitaciones de 12:00 a 18:00 en mm
DESCASC
Precipitaciones de 18:00 a 24:00 en mm
DESCASC

Gráficas

Temp. máximas Temp. mínimas Temp. medias Precipitaciones Rachas de viento máximas Velocidades máximas media en intervalos de 10 minutos

Datos horarios

Fecha y hora oficial Temperatura (ºC) Velocidad del viento (km/h) Dirección del viento Racha (km/h) Dirección de racha Precipitación (mm) Presión (hPa) Tendencia (hPa) Humedad (%)
2020-11-23 23:00:00 5 0 Calma -- -- 0 919.7 -0.5 81
2020-11-23 22:00:00 6.1 0 Calma 9 Norte 0 919.8 -0.4 79
2020-11-23 21:00:00 7.2 0 Calma 9 Norte 0 920 -0.1 75
2020-11-23 20:00:00 7.5 8 Norte 11 Norte 0 920.2 0.3 74
2020-11-23 19:00:00 9.7 5 Oeste -- -- 0 920.2 0.1 63
2020-11-23 18:00:00 11.9 0 Calma 9 Sur 0 920.1 -0.3 56
2020-11-23 17:00:00 14.8 8 Sur 9 Sur 0 919.9 -1.1 46
2020-11-23 16:00:00 16.3 6 Sur 11 Sur 0 920.1 -1.7 43
2020-11-23 15:00:00 15.2 0 Calma 9 Sudeste 0 920.4 -2.1 46
2020-11-23 14:00:00 14.8 0 Calma -- -- 0 921 -1.7 47
2020-11-23 13:00:00 13.1 0 Calma -- -- 0 921.8 -0.9 50
2020-11-23 12:00:00 11.2 0 Calma -- -- 0 922.5 0.1 58
2020-11-23 11:00:00 9 0 Calma 8 Nordeste 0 922.7 0.8 69
2020-11-23 10:00:00 5.9 4 Norte 15 Norte 0 922.7 1 87
2020-11-23 09:00:00 1.9 8 Norte 9 Norte 0 922.4 0.7 91
2020-11-23 08:00:00 2.8 0 Calma 9 Noroeste 0 921.9 0.2 90
2020-11-23 07:00:00 1.8 8 Norte 11 Norte 0 921.7 -0.1 91
2020-11-23 06:00:00 2.7 0 Calma 4 Norte 0 921.7 -0.2 88
2020-11-23 05:00:00 3.3 0 Calma 8 Norte 0 921.7 -- 90
2020-11-23 04:00:00 2.8 0 Calma 5 Nordeste 0 921.8 -- 88
2020-11-23 03:00:00 4 3 Norte 11 Norte 0 921.9 -- 84
2020-11-23 02:00:00 4 9 Noroeste 11 Noroeste 0 922 -- 87
2020-11-23 01:00:00 4.2 6 Noroeste 11 Norte 0 922.3 -- 86
2020-11-23 00:00:00 4.6 3 Noroeste 11 Norte 0 922.3 -- 82
2020-11-22 23:00:00 5.3 9 Norte 11 Norte 0 922.3 -- 80
2020-11-22 22:00:00 5.5 9 Norte 13 Norte 0 922.3 -- 77
2020-11-22 21:00:00 6.4 5 Norte 5 Norte 0 922.1 -- 76
2020-11-22 20:00:00 7.5 0 Calma -- -- 0 921.8 -- 70
2020-11-22 19:00:00 11.7 0 Calma 8 Sur 0 921.3 -- 53
2020-11-22 18:00:00 14.4 5 Sur 13 Sur 0 920.7 -- 41
2020-11-22 17:00:00 16.4 9 Sur 15 Sur 0 920.4 -- 38
2020-11-22 16:00:00 17.1 10 Sudoeste 17 Sur 0 920.3 -- 35
2020-11-22 15:00:00 16 12 Sudoeste 17 Sur 0 920.5 -- 38
2020-11-22 14:00:00 15.4 12 Sudoeste 17 Sudoeste 0 921 -- 42
2020-11-22 13:00:00 13.9 10 Sur 15 Sudoeste 0 921.5 -- 45
2020-11-22 12:00:00 12.2 8 Sur 13 Sur 0 922.1 -- 49
2020-11-22 11:00:00 10.3 0 Calma -- -- 0 922.3 -- 57
2020-11-22 10:00:00 6.7 0 Calma -- -- 0 922.1 -- 69
2020-11-22 09:00:00 2.3 0 Calma -- -- 0 922 -- 81
2020-11-22 08:00:00 2.5 0 Calma 2 Noroeste 0 921.8 -- 81
2020-11-22 07:00:00 1.6 0 Calma 5 Noroeste 0 921.6 -- 84
2020-11-22 06:00:00 2.4 0 Calma 8 Este 0 921.3 -- 79
2020-11-22 05:00:00 2.8 5 Noroeste 9 Noroeste 0 921.1 -- 79
2020-11-22 04:00:00 3.4 5 Noroeste 9 Noroeste 0 921.1 -- 77
2020-11-22 03:00:00 3.8 8 Noroeste 9 Noroeste 0 920.9 -- 77
2020-11-22 02:00:00 4 2 Noroeste 11 Noroeste 0 921 -- 77
2020-11-22 01:00:00 4.5 5 Noroeste 9 Noroeste 0 921.3 -- 70
2020-11-22 00:00:00 5.1 6 Noroeste 11 Norte 0 921.4 -- 66
2020-11-21 23:00:00 5.2 9 Norte 11 Norte 0 921.5 -- 65
2020-11-21 22:00:00 5.6 7 Norte 9 Norte 0 921.5 -- 69
2020-11-21 21:00:00 6.7 8 Noroeste 9 Noroeste 0 921.6 -- 63
2020-11-21 20:00:00 8.9 6 Oeste -- -- 0 921.4 -- 57
2020-11-21 19:00:00 11.7 5 Sudoeste 9 Sur 0 921 -- 45
2020-11-21 18:00:00 14.8 6 Sur 11 Sudeste 0 920.7 -- 34
2020-11-21 17:00:00 17.2 10 Sudeste 15 Sudeste 0 920.4 -- 30
2020-11-21 16:00:00 17.9 10 Sudeste 15 Sur 0 920.4 -- 28
2020-11-21 15:00:00 18.2 6 Sur 13 Sur 0 920.6 -- 24
2020-11-21 14:00:00 17.3 3 Sur 11 Sur 0 921.4 -- 24
2020-11-21 13:00:00 16 0 Calma 8 Este 0 922.1 -- 29
2020-11-21 12:00:00 15.5 0 Calma 13 Nordeste 0 922.5 -- 48
2020-11-21 11:00:00 11 0 Calma 9 Nordeste 0 922.7 -- 74
2020-11-21 10:00:00 8.1 7 Nordeste 11 Este 0 923 -- 81
2020-11-21 09:00:00 3.5 5 Noroeste 11 Noroeste 0 922.6 -- 93
2020-11-21 08:00:00 2.7 8 Norte 15 Norte 0 922.6 -- 94
2020-11-21 07:00:00 2.9 12 Noroeste 17 Noroeste 0 922.6 -- 93
2020-11-21 06:00:00 2.8 7 Oeste 15 Norte 0 922.7 -- 92
2020-11-21 05:00:00 2.8 9 Norte 13 Norte 0 923 -- 93
2020-11-21 04:00:00 2.9 7 Noroeste 17 Norte 0 923.5 -- 96
2020-11-21 03:00:00 2.9 7 Noroeste 11 Norte 0 923.6 -- 94
2020-11-21 02:00:00 3.1 9 Norte 11 Norte 0 924.3 -- 93
2020-11-21 01:00:00 3.3 5 Norte 11 Norte 0 924.5 -- 93
2020-11-21 00:00:00 3.8 0 Calma 5 Norte 0 924.5 -- 89
2020-11-20 23:00:00 4.8 3 Norte 9 Noroeste 0 925 -- 85
2020-11-20 22:00:00 5.1 4 Noroeste 9 Norte 0 925.1 -- 84
2020-11-20 21:00:00 5.3 6 Oeste 13 Norte 0 925 -- 83
2020-11-20 20:00:00 6.1 8 Noroeste 11 Noroeste 0 925.3 -- 82
2020-11-20 19:00:00 8.2 5 Oeste 8 Oeste 0 925.3 -- 72
2020-11-20 18:00:00 10.7 4 Sur 13 Sudeste 0 925.4 -- 61
2020-11-20 17:00:00 12.1 0 Calma 8 Sudeste 0 925.2 -- 54
2020-11-20 16:00:00 11.2 2 Este 13 Sudeste 0 925.2 -- 60
2020-11-20 15:00:00 11 7 Este 13 Este 0 925.7 -- 63
2020-11-20 14:00:00 10.3 5 Este 13 Sudeste 0 926.7 -- 69
2020-11-20 13:00:00 8.6 0 Calma 9 Sur 0 927.4 -- 78
2020-11-20 12:00:00 7.6 3 Norte 11 Norte 0 928 -- 83
2020-11-20 11:00:00 6.4 0 Calma 9 Sudeste 0 928 -- 90
2020-11-20 10:00:00 5.6 0 Calma 9 Norte 0 928.2 -- 96
2020-11-20 09:00:00 6.1 6 Nordeste 8 Nordeste 0 927.8 -- 98
2020-11-20 08:00:00 5.9 0 Calma -- -- 0 927.6 -- 98
2020-11-20 07:00:00 5.9 0 Calma 5 Nordeste 0 927.5 -- 98
2020-11-20 06:00:00 6 5 Nordeste 8 Nordeste 0 927.8 -- 95
2020-11-20 05:00:00 6.6 5 Este 9 Sudeste 0 928.1 -- 94
2020-11-20 04:00:00 7.1 0 Calma 11 Sudeste 0 928.5 -- 94
2020-11-20 03:00:00 7.6 6 Sudeste 9 Sudeste 0 928.2 -- 95
2020-11-20 02:00:00 7.7 8 Sur 11 Sudoeste 0 928.8 -- 95
2020-11-20 01:00:00 7.9 7 Oeste 9 Oeste 0 929.1 -- 94
2020-11-20 00:00:00 7.9 0 Calma 5 Sudeste 0 929.1 -- 93
2020-11-19 23:00:00 8.5 3 Sudeste 8 Sudeste 0 929 -- 91
2020-11-19 22:00:00 7.9 0 Calma 11 Este 0 928.7 -- 80
2020-11-19 21:00:00 9.4 12 Este 17 Norte 0 928.7 -- 77
2020-11-19 20:00:00 9.6 9 Norte 18 Norte 0 928.2 -- 78
2020-11-19 19:00:00 10.7 14 Norte 24 Norte 0 928.2 -- 76
2020-11-19 18:00:00 14 14 Norte 28 Nordeste 0 927.6 -- 61
2020-11-19 17:00:00 17.2 11 Sudoeste 18 Sudoeste 0 927.1 -- 61
2020-11-19 16:00:00 17.6 13 Sudoeste 21 Sur 0 926.9 -- 60
2020-11-19 15:00:00 17.3 13 Sudoeste 22 Sudoeste 0 927.2 -- 61
2020-11-19 14:00:00 17.2 15 Sur 24 Sudoeste 0 927.4 -- 60
2020-11-19 13:00:00 17 9 Sur 13 Sur 0 928.3 -- 64
2020-11-19 12:00:00 15.7 3 Sur 11 Sudoeste 0 928.9 -- 70
2020-11-19 11:00:00 14.1 2 Sur 11 Sudeste 0 928.5 -- 79
2020-11-19 10:00:00 10.4 0 Calma 11 Norte 0 928.6 -- 93
2020-11-19 09:00:00 6.9 8 Norte 11 Norte 0 928.2 -- 95
2020-11-19 08:00:00 7 5 Nordeste 11 Norte 0 927.4 -- 96
2020-11-19 07:00:00 7.2 4 Noroeste 13 Norte 0 926.3 -- 94
2020-11-19 06:00:00 7.2 6 Noroeste 15 Noroeste 0 926.3 -- 95
2020-11-19 05:00:00 7 6 Norte 13 Norte 0 925.9 -- 93
2020-11-19 04:00:00 6.7 7 Norte 15 Norte 0 925.3 -- 97
2020-11-19 03:00:00 6.7 4 Norte 11 Norte 0 924.8 -- 94
2020-11-19 02:00:00 7.2 8 Oeste 11 Oeste 0 924.9 -- 96
2020-11-19 01:00:00 7.5 6 Norte 11 Noroeste 0 924.8 -- 95
2020-11-19 00:00:00 8.3 8 Noroeste 15 Noroeste 0 925.1 -- 94
2020-11-18 23:00:00 8.5 12 Noroeste 15 Noroeste 0 924.8 -- 93
2020-11-18 22:00:00 8.7 8 Noroeste 9 Norte 0 924.3 -- 91
2020-11-18 21:00:00 9.1 4 Noroeste 11 Norte 0 923.6 -- 90
2020-11-18 20:00:00 9.3 7 Norte 9 Norte 0 923.2 -- 90
2020-11-18 19:00:00 10.6 0 Calma 5 Este 0 922.7 -- 85
2020-11-18 18:00:00 13.3 4 Este 9 Este 0 922.2 -- 77
2020-11-18 17:00:00 14.5 7 Este 11 Este 0 921.8 -- 74
2020-11-18 16:00:00 15.2 2 Sudeste 13 Sur 0 921.6 -- 72
2020-11-18 15:00:00 14.3 4 Oeste 13 Sudoeste 0 921.8 -- 77
2020-11-18 14:00:00 12.7 7 Sudoeste 15 Oeste 0 922 -- 86
2020-11-18 13:00:00 11.7 8 Oeste 13 Oeste 0 922.5 -- 91
2020-11-18 12:00:00 10.1 5 Este 11 Norte 0 922.8 -- 94
2020-11-18 11:00:00 9.3 8 Norte 11 Norte 0 922.6 -- 96
2020-11-18 10:00:00 7.4 0 Calma -- -- 0 922.5 -- 97
2020-11-18 09:00:00 4.9 0 Calma 8 Norte 0 921.9 -- 94
2020-11-18 08:00:00 4.8 4 Norte 11 Norte 0 921.2 -- 94
2020-11-18 07:00:00 5 6 Norte 9 Norte 0 920.9 -- 93
2020-11-18 06:00:00 5.1 0 Calma -- -- 0 920.6 -- 93
2020-11-18 05:00:00 5.3 0 Calma 5 Norte 0 920.3 -- 92
2020-11-18 04:00:00 6.1 4 Nordeste 15 Norte 0 920.3 -- 91
2020-11-18 03:00:00 6 12 Norte 17 Norte 0 920.4 -- 91
2020-11-18 02:00:00 6.4 8 Norte 15 Norte 0 920.5 -- 92
2020-11-18 01:00:00 6.5 13 Norte 15 Norte 0 920.9 -- 89
2020-11-18 00:00:00 6.7 10 Norte 13 Norte 0 920.9 -- 88
2020-11-17 23:00:00 6.8 8 Norte 15 Norte 0 921 -- 87
2020-11-17 22:00:00 7 11 Norte 13 Norte 0 920.8 -- 85
2020-11-17 21:00:00 8 0 Calma -- -- 0 920.8 -- 82
2020-11-17 20:00:00 9.4 0 Calma -- -- 0 920.6 -- 75
2020-11-17 19:00:00 10.7 0 Calma 5 Sur 0 920.3 -- 70
2020-11-17 18:00:00 14.4 5 Sur 11 Sudeste 0 920.1 -- 58
2020-11-17 17:00:00 16 9 Sudeste 15 Este 0 920.2 -- 54
2020-11-17 16:00:00 16.1 9 Sudeste 15 Sudeste 0 920.2 -- 56
2020-11-17 15:00:00 15.9 5 Sudoeste 15 Sur 0 920.3 -- 50
2020-11-17 14:00:00 15.3 7 Sur 13 Sur 0 920.9 -- 60
2020-11-17 13:00:00 14.3 6 Sudoeste 13 Sur 0 921.3 -- 68
2020-11-17 12:00:00 13.7 6 Sur 11 Sur 0 922.1 -- 72
2020-11-17 11:00:00 11.9 0 Calma -- -- 0 922 -- 79
2020-11-17 10:00:00 8.1 0 Calma 8 Norte 0 921.9 -- 96
2020-11-17 09:00:00 3.8 4 Norte 9 Noroeste 0 921.5 -- 97
2020-11-17 08:00:00 3.6 6 Noroeste 11 Noroeste 0 921.2 -- 97
2020-11-17 07:00:00 3.9 4 Noroeste 9 Noroeste 0 921 -- 97
2020-11-17 06:00:00 4.1 0 Calma 11 Norte 0 921.1 -- 97
2020-11-17 05:00:00 4.2 5 Noroeste 11 Norte 0 921 -- 97
2020-11-17 04:00:00 4.6 5 Noroeste 8 Noroeste 0 921.2 -- 96
2020-11-17 03:00:00 4.5 5 Noroeste 9 Norte 0 921.3 -0.4 96
2020-11-17 02:00:00 4.6 5 Norte 11 Norte 0 921.5 -- 96
2020-11-17 01:00:00 4.8 0 Calma -- -- 0 921.7 -- 95
2020-11-17 00:00:00 5.6 0 Calma -- -- 0 921.7 -- 94
2020-11-16 23:00:00 6.2 0 Calma 13 Norte 0 921.6 -- 94
2020-11-16 22:00:00 6.5 10 Norte 11 Norte 0 921.3 -- 93
2020-11-16 21:00:00 6.7 10 Norte 11 Norte 0 921.1 -- 91
2020-11-16 20:00:00 7.6 0 Calma -- -- 0 920.9 -- 87
2020-11-16 19:00:00 9.5 0 Calma -- -- 0 920.5 -- 81
2020-11-16 18:00:00 12.3 0 Calma 4 Sudoeste 0 920.2 -- 69
2020-11-16 17:00:00 12.7 0 Calma 8 Oeste 0 920 -- 70
2020-11-16 16:00:00 12.6 2 Sudeste 11 Este 0 919.9 -- 71
2020-11-16 15:00:00 12 5 Este 13 Este 0 920.1 -- 73
2020-11-16 14:00:00 10.9 10 Este 13 Sudeste 0 920.3 -- 82
2020-11-16 13:00:00 10.8 9 Este 15 Este 0 920.5 -- 82
2020-11-16 12:00:00 10.1 8 Este 13 Este 0 920.6 -- 87
2020-11-16 11:00:00 9.4 8 Nordeste 13 Nordeste 0 920.1 -- 87
2020-11-16 10:00:00 7.8 8 Norte 13 Norte 0 919.5 -- 93
2020-11-16 09:00:00 4.3 8 Norte 11 Norte 0 918.9 -- 95
2020-11-16 08:00:00 4.3 3 Noroeste 13 Norte 0 918.5 -- 95
2020-11-16 07:00:00 5.3 9 Norte 17 Noroeste 0 917.8 -- 92
2020-11-16 06:00:00 5.6 11 Noroeste 15 Noroeste 0 917.2 -- 93
2020-11-16 05:00:00 7 5 Oeste 15 Oeste 0 917.1 -- 94
2020-11-16 04:00:00 7.5 13 Oeste 18 Oeste 0 917.1 -- 93
2020-11-16 03:00:00 8.3 13 Oeste 17 Oeste 0 916.7 -- 95
2020-11-16 02:00:00 8.7 9 Oeste 21 Oeste 0 916.6 -- 95
2020-11-16 01:00:00 9.8 12 Oeste 30 Oeste 0 916.5 -- 91
2020-11-16 00:00:00 9.9 19 Oeste 33 Oeste 0 916.2 -- 92
2020-11-15 23:00:00 10.5 18 Oeste 30 Oeste 0 915.7 -- 91
2020-11-15 22:00:00 11.1 19 Oeste 32 Oeste 0 915.5 -- 90
2020-11-15 21:00:00 11.7 14 Oeste 22 Oeste 0 914.8 -- 93
2020-11-15 20:00:00 12.1 12 Oeste 21 Oeste 0 914.2 -- 94
2020-11-15 19:00:00 13 11 Oeste 18 Oeste 0 913.5 -- 94
2020-11-15 18:00:00 13.4 15 Sudoeste 30 Oeste 0 913 -- 95
2020-11-15 17:00:00 13.5 8 Sudoeste 22 Sudoeste 0 912.8 -- 95
2020-11-15 16:00:00 13.8 12 Oeste 21 Oeste 0.7 912.6 -- 94
2020-11-15 15:00:00 14.3 13 Oeste 35 Sudoeste 0.2 912.3 -- 93
2020-11-15 14:00:00 14.2 28 Sudoeste 45 Oeste 0.4 912 -- 92
2020-11-15 13:00:00 14.9 22 Sudoeste 39 Sudoeste 0 912.1 -- 86
2020-11-15 12:00:00 14.3 27 Sudoeste 37 Sudoeste 0 912.4 -- 88
2020-11-15 11:00:00 13.4 24 Sudoeste 35 Sudoeste 0 912.5 -- 91
2020-11-15 10:00:00 12.9 18 Sudoeste 30 Sudoeste 0 912.2 -- 95
2020-11-15 09:00:00 12.1 23 Sudoeste 35 Sudoeste 0 911.9 -- 97
2020-11-15 08:00:00 12 14 Sudoeste 26 Sudoeste 0 911.5 -- 97
2020-11-15 07:00:00 11.7 19 Sur 50 Sudoeste 0 911.5 -- 97
2020-11-15 06:00:00 11.5 22 Sur 35 Sur 0 911.4 -- 97
2020-11-15 05:00:00 11.6 19 Sur 37 Sudoeste 0 911.7 -- 97
2020-11-15 04:00:00 11.7 27 Sudoeste 37 Sur 0 912 -- 98
2020-11-15 03:00:00 11.5 16 Sur 35 Sur 0 912.5 -- 98
2020-11-15 02:00:00 11.4 17 Sur 35 Sur 0 912.8 -- 98
2020-11-15 01:00:00 11.5 19 Sur 30 Sur 0 913.2 -- 98
2020-11-15 00:00:00 11.4 13 Sur 22 Sudoeste 0 913.6 -- 98
2020-11-14 23:00:00 11.4 12 Sur 21 Sur 0 913.9 -- 98
2020-11-14 22:00:00 11 4 Sur 9 Sur 0 913.7 -- 98
2020-11-14 21:00:00 10.6 0 Calma 9 Sudeste 0 913.8 -- 98
2020-11-14 20:00:00 10.3 7 Sudeste 18 Sudeste 0 913.8 -- 98
2020-11-14 19:00:00 10.2 9 Sudeste 13 Sudeste 0 913.7 -- 98
2020-11-14 18:00:00 10.2 9 Sudeste 15 Sudeste 0 913.3 -- 95
2020-11-14 17:00:00 10.3 10 Sudeste 15 Sudeste 0 913.3 -- 93
2020-11-14 16:00:00 10 7 Este 9 Nordeste 0 913.4 -- 93
2020-11-14 15:00:00 9.8 6 Sudeste 13 Sudeste 0 913.4 -- 93
2020-11-14 14:00:00 9.7 9 Sudeste 15 Sudeste 0 913.7 -- 92
2020-11-14 13:00:00 9.2 9 Sudeste 13 Sudeste 0 914.4 -- 96
2020-11-14 12:00:00 8.7 10 Este 13 Este 0 914.7 -- 97
2020-11-14 11:00:00 8 6 Sudeste 13 Sudeste 0.2 914.8 -- 96
2020-11-14 10:00:00 8 9 Sudeste 13 Sudeste 0 914.8 -- 94
2020-11-14 09:00:00 7.9 5 Este 9 Este 0 914.4 -- 94
2020-11-14 08:00:00 7.8 0 Calma 9 Este 0 914.1 -- 95
2020-11-14 07:00:00 7.5 2 Nordeste 9 Este 0 913.8 -- 96
2020-11-14 06:00:00 7.5 6 Sudeste 9 Sudeste 0 913.8 -- 96
2020-11-14 05:00:00 7.4 3 Este 9 Este 0 913.9 -- 98
2020-11-14 04:00:00 7.7 0 Calma -- -- 0 914.1 -- 99
2020-11-14 03:00:00 7.6 0 Calma -- -- 0 914.5 -- 99
2020-11-14 02:00:00 7.8 0 Calma 8 Este 0 914.8 -- 99
2020-11-14 01:00:00 7.8 3 Nordeste 8 Este 0 915.1 -- 98
2020-11-14 00:00:00 7.8 0 Calma 11 Sudeste 0 915.4 -- 98
2020-11-13 23:00:00 8.3 5 Sudeste 11 Sudeste 0 915.3 -- 95
2020-11-13 22:00:00 8.8 0 Calma -- -- 0 915.2 -- 92
2020-11-13 21:00:00 9.1 0 Calma 5 Sudeste 0 915.1 -- 88
2020-11-13 20:00:00 9.9 3 Sudeste 13 Sur 0 915.1 -- 88
2020-11-13 19:00:00 10.7 8 Sudeste 11 Sudeste 0 914.8 -- 84
2020-11-13 18:00:00 10.9 7 Oeste 13 Oeste 0 914.6 -- 80
2020-11-13 17:00:00 11.7 12 Sudoeste 21 Sur 0 914.5 -- 75
2020-11-13 16:00:00 13.3 8 Sur 17 Sudoeste 0 914.4 -- 73
2020-11-13 15:00:00 12.2 9 Sudoeste 18 Sudoeste 0 914.8 -- 79
2020-11-13 14:00:00 11.5 12 Sudoeste 18 Sudoeste 0 915.2 -- 81
2020-11-13 13:00:00 12.1 9 Sur 15 Sur 0 915.5 -- 78
2020-11-13 12:00:00 11.2 5 Sudeste 9 Sudeste 0 916 -- 83
2020-11-13 11:00:00 9.1 0 Calma 4 Este 0 916.2 -- 95
2020-11-13 10:00:00 6.5 5 Este 9 Este 0 915.9 -- 98
2020-11-13 09:00:00 4.9 3 Nordeste 9 Nordeste 0 915.4 -- 99
2020-11-13 08:00:00 4.5 0 Calma 9 Noroeste 0 915.2 -- 97
2020-11-13 07:00:00 5.5 0 Calma -- -- 0 914.9 -- 97
2020-11-13 06:00:00 5.6 0 Calma -- -- 0 914.8 -- 97
2020-11-13 05:00:00 5.8 0 Calma -- -- 0 914.6 -- 97
2020-11-13 04:00:00 6.2 0 Calma 9 Norte 0 914.6 -- 97
2020-11-13 03:00:00 6.3 8 Norte 11 Norte 0 915 -- 98
2020-11-13 02:00:00 6.2 7 Norte 13 Noroeste 0 915.2 -- 97
2020-11-13 01:00:00 6.5 8 Norte 11 Norte 0 915.5 -- 97
2020-11-13 00:00:00 7.8 5 Norte 11 Norte 0 915.8 -- 98
2020-11-12 23:00:00 7.3 9 Norte 13 Norte 0 915.8 -- 97
2020-11-12 22:00:00 7.3 8 Norte 11 Norte 0 915.9 -- 97
2020-11-12 21:00:00 8 9 Noroeste 11 Noroeste 0 915.9 -- 95
2020-11-12 20:00:00 -- -- -- -- -- 0 915.9 -- --
2020-11-12 19:00:00 10 5 Sur 13 Sur 0 915.5 -- 87
2020-11-12 18:00:00 11.4 10 Sur 13 Sur 0 915.3 -- 81
2020-11-12 17:00:00 14.1 8 Sudeste 15 Sur 0 915.3 -- 69
2020-11-12 16:00:00 14.6 7 Sur 21 Sur 0 915.4 -- 66
2020-11-12 15:00:00 14.7 9 Este 17 Este 0 915.7 -- 58
2020-11-12 14:00:00 13.3 6 Nordeste 15 Nordeste 0 916.4 -- 67
2020-11-12 13:00:00 12.2 6 Nordeste 15 Nordeste 0 917.3 -- 72
2020-11-12 12:00:00 10.9 0 Calma 11 Sur 0 918.1 -- 77
2020-11-12 11:00:00 9 3 Este 13 Sudeste 0 918.4 -- 86
2020-11-12 10:00:00 8.4 4 Norte 9 Nordeste 0 918.3 -- 93
2020-11-12 09:00:00 8 0 Calma -- -- 0 918 -- 94
2020-11-12 08:00:00 7.9 4 Este 11 Este 0 917.7 -- 97
2020-11-12 07:00:00 7.9 0 Calma 9 Nordeste 0 917.5 -- 97
2020-11-12 06:00:00 8 5 Nordeste 11 Nordeste 0 917.5 -- 97
2020-11-12 05:00:00 8 7 Nordeste 11 Este 0 917.5 -- 97
2020-11-12 04:00:00 8.1 5 Este 11 Este 0 917.8 -- 96
2020-11-12 03:00:00 8.2 0 Calma 5 Nordeste 0 918.1 -- 96
2020-11-12 02:00:00 8.3 0 Calma -- -- 0 918.3 -- 95
2020-11-12 01:00:00 8.3 0 Calma 8 Sudeste 0 918.6 -- 95
2020-11-12 00:00:00 8.3 3 Sudeste 9 Sudeste 0 918.4 -- 95
2020-11-11 23:00:00 8.3 6 Sudeste 11 Sudeste 0 918.5 -- 95
2020-11-11 22:00:00 8.5 4 Este 9 Este 0 918.3 -- 94
2020-11-11 21:00:00 8.9 0 Calma 13 Sudeste 0 917.9 -- 92
2020-11-11 20:00:00 9.1 8 Sudeste 13 Sudeste 0 917.9 -- 91
2020-11-11 19:00:00 9.3 10 Sudeste 15 Sudeste 0 917.6 -- 88
2020-11-11 18:00:00 9.7 8 Sudeste 15 Sur 0 917.6 -- 86
2020-11-11 17:00:00 10.1 9 Sur 13 Sur 0 917.2 -- 83
2020-11-11 16:00:00 9.9 9 Sudoeste 21 Sudoeste 0 917.3 -- 82
2020-11-11 15:00:00 9.7 13 Sudoeste 24 Sudoeste 0 917.6 -- 84
2020-11-11 14:00:00 8.9 6 Sudeste 17 Sur 0 917.9 -- 89
2020-11-11 13:00:00 8.1 8 Sudeste 13 Sur 0 918.7 -- 92
2020-11-11 12:00:00 7.3 2 Sudeste 11 Este 0 919.2 -- 94
2020-11-11 11:00:00 7.1 7 Sudeste 9 Sudeste 0 919.2 -- 94
2020-11-11 10:00:00 6.8 6 Sudeste 9 Sudeste 0 919.3 -- 93
2020-11-11 09:00:00 6.5 0 Calma 4 Este 0 919.3 -- 92
2020-11-11 08:00:00 6.3 0 Calma 8 Norte 0 919.2 -- 94
2020-11-11 07:00:00 6.3 5 Nordeste 9 Norte 0 919.2 -- 94
2020-11-11 06:00:00 6.1 0 Calma 9 Norte 0 919.4 -- 95
2020-11-11 05:00:00 5.6 8 Norte 9 Nordeste 0 920 -- 95
2020-11-11 04:00:00 6.1 0 Calma -- -- 0 920.5 -- 94
2020-11-11 03:00:00 6 0 Calma -- -- 0 920.9 -- 94
2020-11-11 02:00:00 6 0 Calma 5 Nordeste 0 921.3 -- 93
2020-11-11 01:00:00 5.8 0 Calma 8 Oeste 0 921.6 -- 95
2020-11-11 00:00:00 5.9 5 Noroeste 9 Norte 0 921.8 -- 95
2020-11-10 23:00:00 6.9 0 Calma 9 Este 0 921.9 -- 94
2020-11-10 22:00:00 7.5 8 Este 9 Este 0 921.8 -- 92
2020-11-10 21:00:00 7.6 6 Norte 11 Norte 0 921.7 -- 91
2020-11-10 20:00:00 7.9 6 Nordeste 9 Nordeste 0 921.9 -- 90
2020-11-10 19:00:00 8.5 6 Nordeste 9 Nordeste -- 921.9 -- 87
2020-11-10 18:00:00 8.7 4 Nordeste 9 Sudeste 0 921.9 -- 86
2020-11-10 17:00:00 8.8 2 Sudeste 11 Este 0 921.8 -- 88
2020-11-10 16:00:00 8.7 3 Este 11 Este 0 922 -- 91
2020-11-10 15:00:00 8.7 4 Sudeste 11 Sudeste 0 921.8 -- 92
2020-11-10 14:00:00 8.3 2 Este 11 Nordeste 0 922.1 -- 94
2020-11-10 13:00:00 7.7 6 Este 11 Este 0 922.8 -- 97
2020-11-10 12:00:00 7.3 7 Este 17 Este 0 923 -- 97
2020-11-10 11:00:00 7 9 Este 18 Este 0 922.7 -- 93
2020-11-10 10:00:00 6.9 8 Nordeste 17 Norte 0 922.5 -- 95
2020-11-10 09:00:00 4 4 Norte 9 Norte 0 921.7 -- 99
2020-11-10 08:00:00 3 0 Calma 11 Norte 0 921 -- 99
2020-11-10 07:00:00 3.1 7 Norte 9 Norte 0 920.6 -- 99
2020-11-10 06:00:00 3.8 3 Norte 9 Noroeste 0 920.5 -- 99
2020-11-10 05:00:00 3.9 9 Noroeste 11 Noroeste 0 920.2 -- 97
2020-11-10 04:00:00 4.5 3 Norte 9 Norte 0 920.2 -- 97
2020-11-10 03:00:00 5.3 0 Calma 9 Norte 0 920 -- 97
2020-11-10 02:00:00 6.4 0 Calma 9 Noroeste 0 919.8 -- 95
2020-11-10 01:00:00 8.4 4 Noroeste 9 Noroeste 0 919.9 -- 98
2020-11-10 00:00:00 7.9 0 Calma 5 Norte 0 920 -- 98
2020-11-09 23:00:00 8.2 0 Calma 4 Norte 0 919.9 -- 96
2020-11-09 22:00:00 9 0 Calma -- -- 0 919.5 -- 96
2020-11-09 21:00:00 8.9 0 Calma 8 Norte 0 919.2 -- 96
2020-11-09 20:00:00 10.1 3 Norte 8 Nordeste 0 919 -- 94
2020-11-09 19:00:00 10.8 0 Calma 8 Nordeste 0 918.4 -- 89
2020-11-09 18:00:00 11.7 0 Calma 5 Nordeste 0 917.9 -- 85
2020-11-09 17:00:00 12.2 2 Sudoeste 11 Sur 0.1 917.4 -- 86
2020-11-09 16:00:00 10.7 8 Sudeste 13 Sur 1.7 917.1 -- 93
2020-11-09 15:00:00 11.2 7 Este 11 Este 0 916.8 -- 87
2020-11-09 14:00:00 11.1 6 Sudeste 13 Este 0 916.8 -- 87
2020-11-09 13:00:00 10.6 3 Sudeste 11 Este 0 917.1 -- 91
2020-11-09 12:00:00 9.5 8 Sur 15 Sur 0 917.5 -- 94
2020-11-09 11:00:00 9 7 Sudoeste 15 Sur 0 917.2 -- 96
2020-11-09 10:00:00 8.4 11 Sudoeste 18 Sudoeste 0 916.8 -- 98
2020-11-09 09:00:00 8.4 11 Sudoeste 18 Sur 0 916.3 -- 97
2020-11-09 08:00:00 8.5 10 Sur 15 Sur 0 915.3 -- 99
2020-11-09 07:00:00 8.6 6 Sur 15 Sur 0 914.8 -- 99
2020-11-09 06:00:00 8.5 9 Sur 17 Sudoeste 0 914.7 -- 99
2020-11-09 05:00:00 8.6 11 Sur 22 Sur 0 914.5 -- 99
2020-11-09 04:00:00 8.8 14 Sur 26 Sur 0 914.2 -- 99
2020-11-09 03:00:00 9.1 14 Sur 26 Sur 0 914.4 -- 99
2020-11-09 02:00:00 9.2 21 Sur 28 Sur 0.1 914 -- 99
2020-11-09 01:00:00 9.3 14 Sur 26 Sur 0 914.6 -- 98
2020-11-09 00:00:00 9.4 13 Sur 24 Sur 0 914.4 -- 97
2020-11-08 23:00:00 9.6 13 Sur 24 Sur 0 914.5 -- 97
2020-11-08 22:00:00 9.7 18 Sur 24 Sur 0 914.2 -- 97
2020-11-08 21:00:00 9.7 13 Sur 24 Sudeste 0 914.2 -- 97
2020-11-08 20:00:00 10.1 17 Sur 26 Sur 0 913.9 -- 97
2020-11-08 19:00:00 9.9 9 Sudeste 15 Sudeste 0.1 913.7 -- 96
2020-11-08 18:00:00 10.1 8 Sudeste 18 Sudeste 0 913.4 -- 95
2020-11-08 17:00:00 10.3 12 Sur 22 Sur 0.2 913.3 -- 94
2020-11-08 16:00:00 10.6 13 Sur 22 Sur 0.2 913.5 -- 94
2020-11-08 15:00:00 10.5 14 Sur 24 Sur 0 913.5 -- 94
2020-11-08 14:00:00 10.4 18 Sur 28 Sur 0.2 913.9 -- 94
2020-11-08 13:00:00 10.3 17 Sur 33 Sur 0.3 914.7 -- 95
2020-11-08 12:00:00 10.3 18 Sur 39 Sur 2.1 915 -- 94
2020-11-08 11:00:00 9.8 15 Sudeste 24 Sur 0.1 914.8 -- 96
2020-11-08 10:00:00 9 13 Sudeste 22 Sudeste 0.1 914.8 -- 95
2020-11-08 09:00:00 9.1 15 Sudeste 22 Sudeste 0 914.6 -- 95
2020-11-08 08:00:00 9.3 14 Sudeste 30 Sur 0 914.7 -- 95
2020-11-08 07:00:00 9.2 14 Sudeste 21 Sudeste 0 914.5 -- 97
2020-11-08 06:00:00 9.1 15 Sudeste 22 Sudeste 0.3 914.9 -- 97
2020-11-08 05:00:00 9.1 13 Sudeste 21 Sudeste 0.8 914.8 -- 96
2020-11-08 04:00:00 9.2 14 Sudeste 21 Sur 0 915.1 -- 94
2020-11-08 03:00:00 9.4 13 Sudeste 21 Sudeste 0 915.3 -- 93
2020-11-08 02:00:00 9.4 10 Sudeste 15 Este 0 915.4 -- 92
2020-11-08 01:00:00 9.4 8 Sudeste 13 Sudeste 0 915.7 -- 91
2020-11-08 00:00:00 9.9 0 Calma 18 Sur 0 915.5 -- 89
2020-11-07 23:00:00 9.7 15 Sur 22 Sur 0 915.3 -- 88
2020-11-07 22:00:00 10.6 12 Sur 18 Sur 0 915.1 -- 83
2020-11-07 21:00:00 10.9 6 Sur 13 Sur 0 915 -- 83
2020-11-07 20:00:00 11.3 11 Sur 32 Sur 0 914.5 -- 79
2020-11-07 19:00:00 11.2 19 Sudoeste 30 Sudoeste 0 913.8 -- 80
2020-11-07 18:00:00 11.6 23 Sudoeste 41 Sudoeste 0 913.1 -- 76
2020-11-07 17:00:00 13.1 31 Sudoeste 45 Sudoeste 0 912.6 -- 70
2020-11-07 16:00:00 14 32 Sudoeste 50 Sudoeste 0 911.9 -- 64
2020-11-07 15:00:00 14.1 34 Sudoeste 48 Sudoeste 0 911.5 -- 64
2020-11-07 14:00:00 14.1 32 Sudoeste 46 Sur 0 911.4 -- 63
2020-11-07 13:00:00 13.3 29 Sudoeste 39 Sudoeste 0 911.5 -- 71
2020-11-07 12:00:00 11.9 17 Sudoeste 26 Sudoeste 0 911.4 -- 85
2020-11-07 11:00:00 10.6 18 Sudoeste 26 Sudoeste 0 910.6 -- 92
2020-11-07 10:00:00 10.3 14 Sudoeste 21 Sudoeste 0 909.9 -- 95
2020-11-07 09:00:00 10.3 10 Sur 17 Sur 0 908.9 -- 99
2020-11-07 08:00:00 10.3 9 Sudeste 15 Sur 0 908.1 -- 98
2020-11-07 07:00:00 10.5 8 Sudeste 15 Sudeste 0.1 908.1 -- 98
2020-11-07 06:00:00 10.4 6 Sudeste 9 Sudeste 0.1 907.9 -- 98
2020-11-07 05:00:00 10.3 5 Este 13 Este 0.7 907.8 -- 98
2020-11-07 04:00:00 10.3 10 Este 15 Sudeste 1 907.6 -- 98
2020-11-07 03:00:00 10.5 11 Sudeste 18 Sudeste 2.9 908.2 -- 98
2020-11-07 02:00:00 10.6 8 Sudeste 13 Sudeste 1.2 908.8 -- 98
2020-11-07 01:00:00 10.7 9 Este 15 Este 0.4 908.9 -- 97
2020-11-07 00:00:00 10.9 11 Este 17 Este 2 909.3 -- 97
2020-11-06 23:00:00 11.1 13 Sur 41 Sur 3.5 909.2 -- 95
2020-11-06 22:00:00 11.2 11 Sudeste 54 Sudeste 0.8 908.4 -- 93
2020-11-06 21:00:00 12.4 24 Sudeste 45 Sudeste 2 907.9 -- 89
2020-11-06 20:00:00 13.5 13 Sudeste 33 Sudeste 1 908 -- 87
2020-11-06 19:00:00 14.3 19 Sudeste 32 Sudeste 0.3 908.5 -- 83
2020-11-06 18:00:00 14.1 19 Sudeste 32 Sudeste 0 907.9 -- 80
2020-11-06 17:00:00 13.9 17 Sudeste 37 Este 0 908.5 -- 81
2020-11-06 16:00:00 13.8 20 Este 35 Sudeste 0 908.9 -- 80
2020-11-06 15:00:00 13.5 19 Sudeste 32 Este 0 909.9 -- 83
2020-11-06 14:00:00 13 19 Este 30 Sudeste 0.2 910.6 -- 86
2020-11-06 13:00:00 13.4 18 Este 28 Sudeste 0 911.5 -- 79
2020-11-06 12:00:00 12.5 14 Este 28 Sudeste 0 912 -- 82
2020-11-06 11:00:00 11.4 11 Este 24 Este 0 912.1 -0.5 86
2020-11-06 10:00:00 10.2 14 Este 22 Este 0 913 -- 92
2020-11-06 09:00:00 9.2 11 Nordeste 17 Nordeste 0 912.7 -- 96
2020-11-06 08:00:00 9.4 10 Este 15 Este 0 912.6 -- 95
2020-11-06 07:00:00 9.6 9 Este 21 Sudeste 0 912.2 -- 95
2020-11-06 06:00:00 9.4 13 Este 22 Sudeste 0.5 912.5 -- 95
2020-11-06 05:00:00 9.4 11 Sudeste 24 Este 0.1 912.9 -- 94
2020-11-06 04:00:00 9.2 14 Este 24 Este 0 912 -- 94
2020-11-06 03:00:00 9.6 16 Este 28 Este 0 912.3 -- 94
2020-11-06 02:00:00 9.8 15 Este 26 Sudeste 0 912.6 -- 95
2020-11-06 01:00:00 9.7 17 Este 30 Este 0 913.2 -- 95
2020-11-06 00:00:00 9.7 17 Este 32 Este 1.3 913.6 -- 94
2020-11-05 23:00:00 9.9 18 Este 41 Este 1.7 914.4 -- 92
2020-11-05 22:00:00 10.9 22 Este 37 Este 0 914.2 -- 82
2020-11-05 21:00:00 11.2 18 Este 45 Este 0 914.2 -- 82
2020-11-05 20:00:00 11.6 22 Este 35 Este 0 914.3 -- 77
2020-11-05 19:00:00 11.8 21 Este 41 Este 0 914.4 -- 77
2020-11-05 18:00:00 12.2 22 Este 35 Este 0 914 -- 72
2020-11-05 17:00:00 12.3 20 Este 33 Este 0 914 -- 72
2020-11-05 16:00:00 12.4 23 Este 37 Este 0 914.1 -- 69
2020-11-05 15:00:00 12 23 Este 45 Este 0 914.5 -- 72
2020-11-05 14:00:00 12 26 Este 45 Este 0 914.9 -- 68
2020-11-05 13:00:00 12.2 31 Este 46 Este 0 915.3 -- 67
2020-11-05 12:00:00 11.4 26 Este 45 Este 0 916.2 -- 70
2020-11-05 11:00:00 10.3 23 Este 39 Este 0 916.7 -- 74
2020-11-05 10:00:00 9.3 26 Este 39 Este 0 916.7 -- 77
2020-11-05 09:00:00 7.6 26 Este 35 Este 0 916.4 -- 82
2020-11-05 08:00:00 7.5 21 Este 35 Nordeste 0 915.9 -- 82
2020-11-05 07:00:00 8 20 Este 32 Este 0 916.1 -- 79
2020-11-05 06:00:00 8.2 12 Este 28 Nordeste 0 916.4 -- 76
2020-11-05 05:00:00 8.2 17 Nordeste 39 Este 0 916.2 -- 75
2020-11-05 04:00:00 8.3 24 Este 39 Este 0 916.6 -- 73
2020-11-05 03:00:00 8.4 23 Este 41 Este 0 916.7 -- 70
2020-11-05 02:00:00 8.2 26 Este 39 Nordeste 0 916.6 -- 68
2020-11-05 01:00:00 7.3 14 Nordeste 26 Nordeste 0 916.8 -- 66
2020-11-05 00:00:00 6.6 14 Nordeste 22 Nordeste 0 916.8 -- 66
2020-11-04 23:00:00 6.2 15 Nordeste 24 Nordeste 0 916.7 -- 69
2020-11-04 22:00:00 5.9 15 Nordeste 46 Nordeste 0 916.5 -- 73
2020-11-04 21:00:00 6.5 27 Nordeste 37 Nordeste 0 916.3 -- 68
2020-11-04 20:00:00 7.1 17 Nordeste 26 Nordeste 0 916.2 -- 64
2020-11-04 19:00:00 7.3 17 Nordeste 35 Este 0 915.3 -- 62
2020-11-04 18:00:00 7.8 30 Este 41 Este 0 915 -- 59
2020-11-04 17:00:00 9.4 22 Nordeste 37 Nordeste 0 914.9 -- 56
2020-11-04 16:00:00 9.9 25 Este 35 Este 0 914.6 -- 47
2020-11-04 15:00:00 9.8 22 Nordeste 37 Nordeste 0 914.8 -- 49
2020-11-04 14:00:00 9 21 Este 28 Este 0 915.7 -- 55
2020-11-04 13:00:00 8.6 19 Este 28 Este 0 916.7 -- 56
2020-11-04 12:00:00 7.9 12 Este 21 Este 0 917.4 -- 63
2020-11-04 11:00:00 6.2 6 Este 13 Este 0 917.8 -0.1 70
2020-11-04 10:00:00 4.3 6 Este 11 Este 0 918.3 -- 76
2020-11-04 09:00:00 2.2 7 Nordeste 9 Nordeste 0 918 -- 90
2020-11-04 08:00:00 2.1 4 Nordeste 9 Norte 0 917.9 -- 86
2020-11-04 07:00:00 3.5 6 Norte 8 Norte 0 918.3 -- 83
2020-11-04 06:00:00 3.4 0 Calma 8 Norte 0 918.7 -- 90
2020-11-04 05:00:00 3.2 3 Norte 8 Norte 0 919.3 -- 88
2020-11-04 04:00:00 3.1 5 Noroeste 8 Noroeste 0 919.9 -- 89
2020-11-04 03:00:00 2.8 7 Noroeste 11 Oeste 0 920.7 -- 90
2020-11-04 02:00:00 1.9 5 Oeste 9 Noroeste 0 921.2 -- 90
2020-11-04 01:00:00 2 0 Calma 9 Oeste 0 921.9 -- 85
2020-11-04 00:00:00 1.7 6 Noroeste 8 Noroeste 0 922.7 -- 87
2020-11-03 23:00:00 2.2 0 Calma 8 Noroeste 0 923 -- 84
2020-11-03 22:00:00 2.2 0 Calma 9 Norte 0 923.5 -- 85
2020-11-03 21:00:00 2.7 6 Norte 15 Norte 0 923.5 -- 82
2020-11-03 20:00:00 4.7 9 Norte 26 Norte 0 923.5 -- 75
2020-11-03 19:00:00 5.9 12 Norte 26 Norte 0 923.5 -- 75
2020-11-03 18:00:00 7.9 17 Norte 33 Norte 0 923.6 -- 63
2020-11-03 17:00:00 10.1 19 Norte 32 Norte 0 923.4 -- 58
2020-11-03 16:00:00 11.1 19 Norte 33 Norte 0 923.2 -- 55
2020-11-03 15:00:00 11.5 22 Norte 33 Norte 0 923.3 -- 55
2020-11-03 14:00:00 12 19 Norte 37 Noroeste 0 923.5 -- 55
2020-11-03 13:00:00 12 20 Norte 33 Norte 0 923.6 -- 58
2020-11-03 12:00:00 11.5 22 Norte 35 Norte 0 923.7 -- 60
2020-11-03 11:00:00 10.7 22 Norte 35 Nordeste 0 923.4 -- 64
2020-11-03 10:00:00 8.1 9 Norte 17 Norte 0 923.2 -- 78
2020-11-03 09:00:00 4.2 6 Noroeste 15 Noroeste 0 922.8 -- 90
2020-11-03 08:00:00 2.3 10 Noroeste 18 Noroeste 0 922.1 -- 90
2020-11-03 07:00:00 2.3 10 Noroeste 15 Norte 0 921.7 -- 91
2020-11-03 06:00:00 3.7 7 Noroeste 13 Norte 0 921.6 -- 90
2020-11-03 05:00:00 4.9 8 Norte 17 Norte 0 921.2 -- 90
2020-11-03 04:00:00 6.2 10 Noroeste 17 Noroeste 0 920.8 -- 92
2020-11-03 03:00:00 7.3 10 Noroeste 17 Noroeste 0 920.3 -- 90
2020-11-03 02:00:00 8.3 9 Noroeste 17 Oeste 0 920 -- 87
2020-11-03 01:00:00 9.6 11 Noroeste 22 Oeste 0 919.6 -- 90
2020-11-03 00:00:00 10.1 13 Oeste 28 Noroeste 0 919.2 -- 92
2020-11-02 23:00:00 11 15 Oeste 30 Noroeste 0 918.7 -- 94
2020-11-02 22:00:00 11.4 12 Oeste 24 Oeste 0 918.6 -- 95
2020-11-02 21:00:00 12 17 Oeste 30 Oeste 4 918.5 -- 94
2020-11-02 20:00:00 13.1 17 Oeste 32 Oeste 1.7 918.3 -- 93
2020-11-02 19:00:00 15.1 10 Sudoeste 26 Sur 0 917.6 -- 89
2020-11-02 18:00:00 15.8 12 Sudoeste 26 Sur 0 917.3 -- 84
2020-11-02 17:00:00 16.9 20 Sur 30 Sudoeste 0 917 -- 76
2020-11-02 16:00:00 17.2 12 Sur 24 Sudeste 0 916.9 -- 71
2020-11-02 15:00:00 17 17 Sur 26 Sur 0 917.1 -- 74
2020-11-02 14:00:00 16.6 15 Sur 26 Sur 0 917.5 -- 76
2020-11-02 13:00:00 16.6 15 Sur 22 Sudeste 0 918.2 -- 77
2020-11-02 12:00:00 15.3 6 Sur 17 Sudoeste 0 918.7 -- 85
2020-11-02 11:00:00 13.6 7 Sur 13 Sur 0 918.7 -- 95
2020-11-02 10:00:00 12.6 6 Sur 13 Sur 0 918.7 -- 99
2020-11-02 09:00:00 12.2 6 Sur 9 Sur 0 918.1 -- 99
2020-11-02 08:00:00 12 0 Calma 11 Oeste 0 917.6 -- 99
2020-11-02 07:00:00 12 6 Sudoeste 9 Sudoeste 0 917.4 -- 99
2020-11-02 06:00:00 11.8 9 Oeste 17 Sudoeste 0 917.4 -- 99
2020-11-02 05:00:00 12 8 Sudoeste 15 Sudoeste 0 917.3 -- 99
2020-11-02 04:00:00 12.1 7 Sudoeste 15 Sudoeste 0 917.2 -- 99
2020-11-02 03:00:00 12.6 8 Sur 13 Sur 0 917.5 -- 99
2020-11-02 02:00:00 12.6 0 Calma 4 Sudeste 0 917.8 -- 99
2020-11-02 01:00:00 12.5 4 Sur 8 Sur 0 918.2 -- 99
2020-11-02 00:00:00 12.3 0 Calma 5 Norte 0 918.5 -- 99
2020-11-01 23:00:00 12.2 5 Nordeste 5 Nordeste 0 918.6 -- 99
2020-11-01 22:00:00 12.2 5 Nordeste -- -- 0 918.6 -- 99
2020-11-01 21:00:00 12.1 4 Nordeste 8 Este 0 918.7 -- 99
2020-11-01 20:00:00 12.1 5 Nordeste 8 Nordeste 0 918.8 -- 99
2020-11-01 19:00:00 12.1 4 Norte 5 Norte 0 918.7 -- 99
2020-11-01 18:00:00 12.2 0 Calma 8 Sudeste 0 918.6 -- 99
2020-11-01 17:00:00 12 6 Sudeste 11 Sudeste 0 918.9 -- 99
2020-11-01 16:00:00 11.9 7 Sudeste 11 Sudeste 0 919.1 -- 98
2020-11-01 15:00:00 11.8 4 Sudeste 9 Sudeste 0 919.5 -- 98
2020-11-01 14:00:00 11.5 3 Sudeste 9 Este 0 919.9 -- 98
2020-11-01 13:00:00 11.4 4 Este 9 Este 0 920.4 -- 99
2020-11-01 12:00:00 10.9 0 Calma 9 Sudeste 0 920.8 -- 99
2020-11-01 11:00:00 10.4 5 Nordeste 9 Nordeste 0 920.9 -- 99
2020-11-01 10:00:00 10 4 Este 9 Sudeste 0 920.7 -- 99
2020-11-01 09:00:00 10.1 4 Este 8 Este 0 920.3 -- 99
2020-11-01 08:00:00 9.9 0 Calma 8 Este 0 919.6 -- 99
2020-11-01 07:00:00 9.7 5 Este 9 Este 0 919.5 -- 99
2020-11-01 06:00:00 9.8 3 Este 9 Nordeste 0 919.7 -- 99
2020-11-01 05:00:00 9.8 0 Calma 5 Noroeste 0 919.7 -- 99
2020-11-01 04:00:00 9.7 0 Calma 11 Este 0 920 -- 98
2020-11-01 03:00:00 9.7 5 Nordeste 9 Nordeste 0 920.2 -- 98
2020-11-01 02:00:00 9.2 3 Norte 8 Norte 0 920.4 -- 96
2020-11-01 01:00:00 9.3 6 Este 9 Este 0 920.3 -- 96
2020-11-01 00:00:00 9.3 9 Norte 13 Norte 0 920.7 -- 97
2020-10-31 23:00:00 9.2 5 Norte 9 Norte 0 920.6 -- 97
2020-10-31 22:00:00 8.9 4 Norte 9 Norte 0 920.4 -- 96
2020-10-31 21:00:00 9.2 7 Norte 11 Norte 0 920.4 -- 94
2020-10-31 20:00:00 11.1 3 Nordeste 9 Sudeste 0 920.5 -- 93
2020-10-31 19:00:00 12.3 5 Sudeste 9 Sudeste 0 920.2 -- 88
2020-10-31 18:00:00 14 0 Calma 9 Sur 0 920 -- 83
2020-10-31 17:00:00 14.2 9 Sudoeste 11 Sur 0 920 -- 82
2020-10-31 16:00:00 14.1 7 Sudoeste 18 Sur 0 919.8 -- 82
2020-10-31 15:00:00 12.5 7 Sur 15 Sur 0 920.2 -- 88
2020-10-31 14:00:00 11.2 3 Norte 11 Noroeste 0 920.9 -- 94
2020-10-31 13:00:00 10.2 4 Sur 13 Sudoeste 0 920.8 -- 97
2020-10-31 12:00:00 9.6 4 Sudoeste 13 Sudeste 0 921.3 -- 98
2020-10-31 11:00:00 9.6 6 Sur 9 Sur 0 921.2 -- 98
2020-10-31 10:00:00 9.4 5 Este 9 Sudeste 0 921.2 -- 98
2020-10-31 09:00:00 8.1 3 Este 11 Este 0 920.7 -- 99
2020-10-31 08:00:00 9 6 Este 9 Este 0 920.3 -- 98
2020-10-31 07:00:00 8.7 0 Calma 8 Oeste 0 920.3 -- 99
2020-10-31 06:00:00 7.1 6 Norte 9 Norte 0 920 -- 98
2020-10-31 05:00:00 7.2 5 Norte 11 Norte 0 919.7 -- 98
2020-10-31 04:00:00 7.9 5 Norte 11 Norte 0 919.9 -- 97
2020-10-31 03:00:00 7.8 7 Norte 13 Norte 0 920.1 -- 95
2020-10-31 02:00:00 7.7 4 Norte 11 Nordeste 0 920.1 -- 96
2020-10-31 01:00:00 8.6 4 Norte 11 Norte 0 920.4 -- 94
2020-10-31 00:00:00 8.4 8 Norte 15 Norte 0 920.6 -- 93
2020-10-30 23:00:00 8.5 13 Norte 17 Norte 0 920.7 -- 91
2020-10-30 22:00:00 8.8 12 Norte 15 Norte 0 920.8 -- 90
2020-10-30 21:00:00 8.8 9 Norte 13 Norte 0 920.5 -- 89
2020-10-30 20:00:00 9.8 7 Nordeste 9 Norte 0 920.6 -- 88
2020-10-30 19:00:00 12.7 0 Calma 9 Este 0 920.2 -- 78
2020-10-30 18:00:00 14.4 -- -- -- -- 0 920.2 -- 71
2020-10-30 17:00:00 15.8 8 Este 17 Sudeste 0 920.2 -- 66
2020-10-30 16:00:00 15.9 6 Oeste 13 Sur 0 920.4 -- 65
2020-10-30 15:00:00 14.9 8 Sudoeste 18 Sudoeste 0 920.8 -- 71
2020-10-30 14:00:00 13.1 10 Sudoeste 17 Sudoeste 0 921.3 -- 76
2020-10-30 13:00:00 12.5 7 Sudoeste 15 Sudoeste 0 921.8 -- 76
2020-10-30 12:00:00 11.6 0 Calma 11 Nordeste 0 922.3 -- 80
2020-10-30 11:00:00 10.1 5 Nordeste 9 Nordeste 0 922.2 -- 86
2020-10-30 10:00:00 8.5 5 Sudoeste 13 Sudoeste 0 922.4 -- 93
2020-10-30 09:00:00 8.1 9 Norte 15 Norte 0 922 -- 95
2020-10-30 08:00:00 7 10 Norte 15 Norte 0 921.2 -- 94
2020-10-30 07:00:00 7.6 4 Norte 8 Nordeste 0 921.3 -- 92
2020-10-30 06:00:00 7.9 0 Calma 8 Sudeste 0 921.3 -- 92
2020-10-30 05:00:00 7.4 3 Norte 9 Nordeste 0 921.3 -- 92
2020-10-30 04:00:00 7.2 3 Nordeste 15 Norte 0 921.3 -- 93
2020-10-30 03:00:00 6.9 7 Nordeste 11 Nordeste 0 921.3 -- 93
2020-10-30 02:00:00 5.6 7 Norte 15 Norte 0 921.3 -- 96
2020-10-30 01:00:00 5 11 Norte 17 Norte 0 921.4 -- 97
2020-10-30 00:00:00 4.6 12 Norte 15 Norte 0 921.5 -- 95
2020-10-29 23:00:00 5.4 7 Norte -- -- 0 921.7 -- 91
2020-10-29 22:00:00 6.1 -- -- -- -- 0 921.7 -- 87
2020-10-29 21:00:00 6.5 5 Norte 9 Norte 0 921.5 -- 87
2020-10-29 20:00:00 8.8 6 Oeste -- -- 0 921.3 -- 79
2020-10-29 19:00:00 -- -- -- -- -- 0 920.8 -- --
2020-10-29 18:00:00 14 9 Sur 13 Sur 0 920.5 -- 62
2020-10-29 17:00:00 15.2 9 Sur 15 Sudoeste 0 920.5 -- 60
2020-10-29 16:00:00 15.6 6 Sur 15 Sudeste 0 920.5 -- 59
2020-10-29 15:00:00 15.1 9 Sur 18 Sur 0 920.7 -- 60
2020-10-29 14:00:00 14.7 8 Sur 15 Sur 0 921.2 -- 61
2020-10-29 13:00:00 13.4 4 Sur 13 Sur 0 921.6 -- 65
2020-10-29 12:00:00 12.3 3 Sur 9 Sudoeste 0 922.1 -- 70
2020-10-29 11:00:00 10.1 4 Este 9 Este 0 922 -- 78
2020-10-29 10:00:00 7.7 4 Nordeste 13 Norte 0 921.8 -- 89
2020-10-29 09:00:00 4.4 9 Norte 15 Norte 0 921.4 -- 99
2020-10-29 08:00:00 2.4 5 Norte 13 Norte 0 920.9 -- 97
2020-10-29 07:00:00 2.3 8 Norte 11 Norte 0 920.5 -- 97
2020-10-29 06:00:00 2.4 4 Nordeste 8 Norte 0 920.4 -- 96
2020-10-29 05:00:00 3.2 4 Este 9 Oeste 0 920.1 -- 95
2020-10-29 04:00:00 3.7 5 Nordeste 11 Oeste 0 919.7 -- 95
2020-10-29 03:00:00 3.9 9 Oeste 11 Noroeste 0 919.8 -- 94
2020-10-29 02:00:00 3.9 5 Noroeste 11 Norte 0 919.6 -- 95
2020-10-29 01:00:00 3.8 10 Norte 13 Norte 0 919.6 -- 92
2020-10-29 00:00:00 4.9 4 Norte -- -- 0 919.7 -- 89
2020-10-28 23:00:00 6.3 3 Oeste 11 Oeste 0 919.3 -- 87
2020-10-28 22:00:00 7.7 7 Noroeste 18 Oeste 0 918.9 -- 83
2020-10-28 21:00:00 8.5 12 Oeste 18 Oeste 0 918.5 -- 82
2020-10-28 20:00:00 9 12 Oeste 18 Oeste 0 918.1 -- 79
2020-10-28 19:00:00 10.3 11 Oeste 18 Oeste 0 917.7 -- 73
2020-10-28 18:00:00 12.7 10 Oeste 22 Oeste 0 917.2 -- 66
2020-10-28 17:00:00 13.5 14 Oeste 30 Oeste 0 916.9 -- 63
2020-10-28 16:00:00 14.7 21 Oeste 39 Oeste 0 916.3 -- 56
2020-10-28 15:00:00 14.7 23 Oeste 33 Sudoeste 0 916.4 -- 60
2020-10-28 14:00:00 13.8 20 Oeste 37 Oeste 0 916.3 -- 65
2020-10-28 13:00:00 13.2 26 Oeste 41 Oeste 0 916.2 -- 67
2020-10-28 12:00:00 12.2 26 Oeste 42 Oeste 0 916.6 -- 75
2020-10-28 11:00:00 12.2 22 Oeste 37 Oeste 0 916.3 -- 77
2020-10-28 10:00:00 10.8 21 Oeste 35 Oeste 0 915.5 -- 85
2020-10-28 09:00:00 9.7 18 Oeste 32 Noroeste 0 914.9 -- 88
2020-10-28 08:00:00 8.7 15 Oeste 30 Oeste 0 913.8 -- 90
2020-10-28 07:00:00 8.5 13 Oeste 30 Oeste 0 913.7 -- 91
2020-10-28 06:00:00 9.4 6 Sudoeste 21 Oeste 0 913.3 -- 95
2020-10-28 05:00:00 10.1 10 Oeste 21 Sudoeste 0 913 -- 98
2020-10-28 04:00:00 10.1 14 Sudoeste 22 Sudoeste 0 913 -- 98
2020-10-28 03:00:00 10 13 Sudoeste 21 Sur 0 912.9 -- 97
2020-10-28 02:00:00 10 10 Sudoeste 21 Sur 0 913 -- 97
2020-10-28 01:00:00 9.9 11 Sur 21 Sudoeste 0.1 912.9 -- 97
2020-10-28 00:00:00 9.9 12 Sudoeste 21 Sudoeste 0 913.2 -- 97
2020-10-27 23:00:00 9.9 15 Sudoeste 24 Sudoeste 0 913.1 -- 96
2020-10-27 22:00:00 9.9 12 Sur 17 Sur 0.3 912.9 -- 96
2020-10-27 21:00:00 9.9 12 Sur 21 Sur 0.3 912.9 -- 95
2020-10-27 20:00:00 10.7 13 Sur 18 Sur 0 912.6 -- 88
2020-10-27 19:00:00 11.4 2 Sudeste 8 Sudeste 0 912.4 -- 86
2020-10-27 18:00:00 11.5 0 Calma 9 Oeste 0 912.1 -- 86
2020-10-27 17:00:00 11.4 10 Sudoeste 15 Sudoeste 0.1 912.1 -- 87
2020-10-27 16:00:00 12.1 0 Calma 11 Sudoeste 0.2 912.1 -- 80
2020-10-27 15:00:00 12.2 7 Sur 21 Sudoeste 0 911.9 -- 74
2020-10-27 14:00:00 12.2 15 Oeste 26 Oeste 0 912.3 -- 76
2020-10-27 13:00:00 11.4 17 Sudoeste 24 Sudoeste 0 912.8 -- 79
2020-10-27 12:00:00 9.4 9 Sudoeste 15 Sudoeste 0 913.4 -- 83
2020-10-27 11:00:00 8.2 8 Sur 15 Sudoeste 0 913.2 -- 89
2020-10-27 10:00:00 7.2 9 Sur 17 Sur 0 913.1 -- 90
2020-10-27 09:00:00 6.7 12 Sur 22 Sudoeste 0 912.9 -- 93
2020-10-27 08:00:00 6.3 11 Sur 17 Sur 0 912.4 -- 93
2020-10-27 07:00:00 6.3 11 Sur 15 Sur 0 912.4 -- 92
2020-10-27 06:00:00 6.5 12 Sudoeste 22 Oeste 0 912.7 -- 90
2020-10-27 05:00:00 6.6 8 Sudoeste 30 Oeste 0 912.7 -- 90
2020-10-27 04:00:00 6.2 12 Sudoeste 21 Sudoeste 0 913 -- 94
2020-10-27 03:00:00 6.3 14 Sudoeste 22 Sudoeste 0 913.1 -- 94
2020-10-27 02:00:00 6.3 11 Sudoeste 18 Sudoeste 0 913.4 -- 98
2020-10-27 01:00:00 6 9 Sudoeste 17 Sur 0 913.7 -- 98
2020-10-27 00:00:00 6 12 Sur 24 Sudoeste 0.1 914.2 -- 98
2020-10-26 23:00:00 6 12 Sudoeste 28 Oeste 0 914.2 -- 95
2020-10-26 22:00:00 6.1 15 Oeste 26 Oeste 0 914.1 -- 90
2020-10-26 21:00:00 6.5 15 Oeste 30 Oeste 0 913.9 -- 84
2020-10-26 20:00:00 6.1 18 Oeste 33 Oeste 0 913.8 -- 86
2020-10-26 19:00:00 6.8 20 Oeste 35 Oeste 0 913.4 -- 83
2020-10-26 18:00:00 8 23 Oeste 42 Oeste 0 913 -- 75
2020-10-26 17:00:00 10.3 22 Oeste 39 Oeste 0 912.6 -- 62
2020-10-26 16:00:00 9.7 25 Oeste 45 Oeste 0 912.7 -- 67
2020-10-26 15:00:00 10.7 30 Oeste 42 Oeste 0 912.3 -- 65
2020-10-26 14:00:00 10.1 23 Oeste 45 Oeste 0 912.5 -- 66
2020-10-26 13:00:00 9.8 29 Sudoeste 41 Sudoeste 0 912.9 -- 68
2020-10-26 12:00:00 8.5 26 Oeste 41 Sudoeste 0 912.8 -- 74
2020-10-26 11:00:00 7.4 24 Oeste 41 Oeste 0 912.5 -- 78
2020-10-26 10:00:00 6 21 Oeste 33 Oeste 0 912.2 -- 82
2020-10-26 09:00:00 4 17 Oeste 28 Oeste 0 911.5 -- 92
2020-10-26 08:00:00 2.5 10 Oeste 22 Oeste 0 910.8 -- 96
2020-10-26 07:00:00 2.8 15 Oeste 26 Oeste 0 909.9 -- 96
2020-10-26 06:00:00 3 18 Oeste 30 Oeste 0 909.4 -- 95
2020-10-26 05:00:00 3.8 19 Oeste 30 Oeste 0 908.9 -- 93
2020-10-26 04:00:00 3.7 20 Oeste 32 Oeste 0 908.5 -- 94
2020-10-26 03:00:00 3.4 17 Oeste 30 Oeste 0 908.3 -- 94
2020-10-26 02:00:00 3.7 16 Oeste 26 Oeste 0 908.2 -- 94
2020-10-26 01:00:00 4.2 20 Oeste 30 Oeste 0 908.1 -- 93
2020-10-26 00:00:00 4.3 21 Oeste 30 Oeste 0 908.2 -- 92
2020-10-25 23:00:00 4.6 23 Oeste 33 Oeste 0 908.1 -- 91
2020-10-25 22:00:00 4.9 23 Oeste 32 Oeste 0 907.4 -- 90
2020-10-25 21:00:00 4.8 13 Sudoeste 21 Oeste 0 907.3 -- 89
2020-10-25 20:00:00 5.2 12 Oeste 28 Oeste 0 907.3 -- 87
2020-10-25 19:00:00 6.3 23 Oeste 41 Oeste 0 906.4 -- 83
2020-10-25 18:00:00 8 28 Oeste 42 Oeste 0 905.8 -- 76
2020-10-25 17:00:00 8.3 23 Oeste 55 Oeste 0 905.3 -- 77
2020-10-25 16:00:00 9.3 40 Oeste 61 Oeste 0 904.6 -- 73
2020-10-25 15:00:00 11.7 42 Oeste 68 Oeste 0 903.9 -- 71
2020-10-25 14:00:00 11.3 26 Oeste 42 Oeste 0 905 -- 84
2020-10-25 13:00:00 10.7 15 Sudoeste 30 Sudoeste 0 905.3 -- 91
2020-10-25 12:00:00 10.4 16 Oeste 45 Oeste 0 905.9 -- 91
2020-10-25 11:00:00 9.8 16 Oeste 24 Oeste 0.4 906.1 -- 96
2020-10-25 10:00:00 9.7 16 Sudoeste 28 Sudoeste 1.2 906.2 -- 95
2020-10-25 09:00:00 10.2 15 Sudoeste 39 Sudoeste 1 905.3 -- 95
2020-10-25 08:00:00 10.1 30 Sudoeste 45 Sudoeste 1.3 905.4 -- 98
2020-10-25 07:00:00 10.2 29 Sur 50 Sur 1.7 905.8 -- 97
2020-10-25 06:00:00 10.2 32 Sur 50 Sur 1.1 906.5 -- 97
2020-10-25 05:00:00 10.3 32 Sur 54 Sudoeste 0.3 906.8 -- 96
2020-10-25 04:00:00 10.4 35 Sur 50 Sur 0 907.4 -- 95
2020-10-25 03:00:00 10.8 28 Sur 45 Sur 0 908.3 -- 91
2020-10-25 02:00:00 10.5 32 Sudoeste 46 Sudoeste 0 909.2 -- 95
2020-10-25 01:00:00 10.4 30 Sur 54 Sur 0 910.9 -- 95
2020-10-25 00:00:00 10.7 35 Sur 50 Sur 0 911.4 -- 93